sensor_id;sensor_type;location;lat;lon;timestamp;temperature;humidity
61323;DHT22;47203;48.428;11.974;2024-03-29T00:00:37;19.00;69.10
61323;DHT22;47203;48.428;11.974;2024-03-29T00:02:38;18.90;68.60
61323;DHT22;47203;48.428;11.974;2024-03-29T00:04:39;19.00;68.80
61323;DHT22;47203;48.428;11.974;2024-03-29T00:06:40;18.90;68.80
61323;DHT22;47203;48.428;11.974;2024-03-29T00:08:41;19.00;69.20
61323;DHT22;47203;48.428;11.974;2024-03-29T00:10:42;19.00;69.60
61323;DHT22;47203;48.428;11.974;2024-03-29T00:12:43;19.00;69.70
61323;DHT22;47203;48.428;11.974;2024-03-29T00:14:45;18.90;69.30
61323;DHT22;47203;48.428;11.974;2024-03-29T00:16:46;19.00;68.70
61323;DHT22;47203;48.428;11.974;2024-03-29T00:18:47;19.00;69.00
61323;DHT22;47203;48.428;11.974;2024-03-29T00:20:48;18.90;68.70
61323;DHT22;47203;48.428;11.974;2024-03-29T00:22:49;19.00;69.00
61323;DHT22;47203;48.428;11.974;2024-03-29T00:24:50;19.00;69.10
61323;DHT22;47203;48.428;11.974;2024-03-29T00:26:51;19.00;69.20
61323;DHT22;47203;48.428;11.974;2024-03-29T00:28:52;18.90;68.80
61323;DHT22;47203;48.428;11.974;2024-03-29T00:30:54;19.00;69.20
61323;DHT22;47203;48.428;11.974;2024-03-29T00:32:55;19.00;69.40
61323;DHT22;47203;48.428;11.974;2024-03-29T00:34:56;18.90;68.90
61323;DHT22;47203;48.428;11.974;2024-03-29T00:36:57;19.00;68.90
61323;DHT22;47203;48.428;11.974;2024-03-29T00:38:58;18.90;68.20
61323;DHT22;47203;48.428;11.974;2024-03-29T00:40:59;19.00;69.00
61323;DHT22;47203;48.428;11.974;2024-03-29T00:42:59;18.90;69.00
61323;DHT22;47203;48.428;11.974;2024-03-29T00:45:00;18.90;68.80
61323;DHT22;47203;48.428;11.974;2024-03-29T00:47:03;18.90;68.80
61323;DHT22;47203;48.428;11.974;2024-03-29T00:49:04;18.90;68.80
61323;DHT22;47203;48.428;11.974;2024-03-29T00:51:05;18.90;69.10
61323;DHT22;47203;48.428;11.974;2024-03-29T00:53:06;19.00;68.60
61323;DHT22;47203;48.428;11.974;2024-03-29T00:55:07;18.90;68.60
61323;DHT22;47203;48.428;11.974;2024-03-29T00:57:08;18.90;68.50
61323;DHT22;47203;48.428;11.974;2024-03-29T00:59:09;18.90;68.80
61323;DHT22;47203;48.428;11.974;2024-03-29T01:01:10;18.90;68.30
61323;DHT22;47203;48.428;11.974;2024-03-29T01:03:12;18.90;68.40
61323;DHT22;47203;48.428;11.974;2024-03-29T01:05:13;18.90;69.10
61323;DHT22;47203;48.428;11.974;2024-03-29T01:07:14;18.90;68.90
61323;DHT22;47203;48.428;11.974;2024-03-29T01:09:15;18.90;69.10
61323;DHT22;47203;48.428;11.974;2024-03-29T01:11:16;18.90;68.40
61323;DHT22;47203;48.428;11.974;2024-03-29T01:13:17;18.90;69.10
61323;DHT22;47203;48.428;11.974;2024-03-29T01:15:18;18.90;69.10
61323;DHT22;47203;48.428;11.974;2024-03-29T01:17:21;18.90;68.90
61323;DHT22;47203;48.428;11.974;2024-03-29T01:19:23;18.90;68.70
61323;DHT22;47203;48.428;11.974;2024-03-29T01:21:24;18.90;68.90
61323;DHT22;47203;48.428;11.974;2024-03-29T01:23:26;18.90;69.00
61323;DHT22;47203;48.428;11.974;2024-03-29T01:25:27;18.90;69.00
61323;DHT22;47203;48.428;11.974;2024-03-29T01:27:28;18.90;68.60
61323;DHT22;47203;48.428;11.974;2024-03-29T01:29:29;18.90;69.20
61323;DHT22;47203;48.428;11.974;2024-03-29T01:31:29;18.90;69.10
61323;DHT22;47203;48.428;11.974;2024-03-29T01:33:30;18.90;69.00
61323;DHT22;47203;48.428;11.974;2024-03-29T01:35:33;19.00;69.40
61323;DHT22;47203;48.428;11.974;2024-03-29T01:37:34;18.90;68.90
61323;DHT22;47203;48.428;11.974;2024-03-29T01:39:35;18.90;69.30
61323;DHT22;47203;48.428;11.974;2024-03-29T01:41:36;18.90;69.00
61323;DHT22;47203;48.428;11.974;2024-03-29T01:43:37;18.90;68.50
61323;DHT22;47203;48.428;11.974;2024-03-29T01:45:39;18.90;69.10
61323;DHT22;47203;48.428;11.974;2024-03-29T01:47:42;18.90;68.80
61323;DHT22;47203;48.428;11.974;2024-03-29T01:49:44;18.90;68.30
61323;DHT22;47203;48.428;11.974;2024-03-29T01:51:47;18.90;68.30
61323;DHT22;47203;48.428;11.974;2024-03-29T01:53:49;18.90;69.10
61323;DHT22;47203;48.428;11.974;2024-03-29T01:55:53;18.90;68.90
61323;DHT22;47203;48.428;11.974;2024-03-29T01:57:58;18.90;69.10
61323;DHT22;47203;48.428;11.974;2024-03-29T02:00:00;18.90;68.90
61323;DHT22;47203;48.428;11.974;2024-03-29T02:04:07;18.90;69.10
61323;DHT22;47203;48.428;11.974;2024-03-29T02:06:11;18.90;68.60
61323;DHT22;47203;48.428;11.974;2024-03-29T02:08:15;18.90;69.10
61323;DHT22;47203;48.428;11.974;2024-03-29T02:10:17;18.90;69.00
61323;DHT22;47203;48.428;11.974;2024-03-29T02:12:19;18.90;68.30
61323;DHT22;47203;48.428;11.974;2024-03-29T02:14:25;18.90;68.50
61323;DHT22;47203;48.428;11.974;2024-03-29T02:16:26;18.90;69.10
61323;DHT22;47203;48.428;11.974;2024-03-29T02:18:28;18.90;69.20
61323;DHT22;47203;48.428;11.974;2024-03-29T02:20:29;18.90;68.90
61323;DHT22;47203;48.428;11.974;2024-03-29T02:22:33;18.90;68.80
61323;DHT22;47203;48.428;11.974;2024-03-29T02:24:39;18.90;68.70
61323;DHT22;47203;48.428;11.974;2024-03-29T02:26:40;18.90;68.80
61323;DHT22;47203;48.428;11.974;2024-03-29T02:28:42;18.90;68.90
61323;DHT22;47203;48.428;11.974;2024-03-29T02:30:43;18.90;69.40
61323;DHT22;47203;48.428;11.974;2024-03-29T02:32:45;18.90;68.80
61323;DHT22;47203;48.428;11.974;2024-03-29T02:34:46;18.90;69.00
61323;DHT22;47203;48.428;11.974;2024-03-29T02:36:48;18.90;69.20
61323;DHT22;47203;48.428;11.974;2024-03-29T02:38:50;18.90;68.80
61323;DHT22;47203;48.428;11.974;2024-03-29T02:40:54;18.90;69.10
61323;DHT22;47203;48.428;11.974;2024-03-29T02:42:55;18.90;68.40
61323;DHT22;47203;48.428;11.974;2024-03-29T02:44:56;18.90;68.90
61323;DHT22;47203;48.428;11.974;2024-03-29T02:46:58;18.90;68.90
61323;DHT22;47203;48.428;11.974;2024-03-29T02:48:59;18.90;69.10
61323;DHT22;47203;48.428;11.974;2024-03-29T02:51:01;18.90;68.70
61323;DHT22;47203;48.428;11.974;2024-03-29T02:53:02;18.90;68.70
61323;DHT22;47203;48.428;11.974;2024-03-29T02:55:04;18.90;68.90
61323;DHT22;47203;48.428;11.974;2024-03-29T02:57:07;18.90;68.20
61323;DHT22;47203;48.428;11.974;2024-03-29T02:59:09;18.90;68.80
61323;DHT22;47203;48.428;11.974;2024-03-29T03:01:10;18.90;68.60
61323;DHT22;47203;48.428;11.974;2024-03-29T03:03:13;18.90;69.10
61323;DHT22;47203;48.428;11.974;2024-03-29T03:05:14;18.90;69.10
61323;DHT22;47203;48.428;11.974;2024-03-29T03:07:15;18.90;68.90
61323;DHT22;47203;48.428;11.974;2024-03-29T03:11:56;18.90;68.90
61323;DHT22;47203;48.428;11.974;2024-03-29T03:14:00;18.90;69.20
61323;DHT22;47203;48.428;11.974;2024-03-29T03:16:01;18.90;69.30
61323;DHT22;47203;48.428;11.974;2024-03-29T03:18:03;18.90;69.20
61323;DHT22;47203;48.428;11.974;2024-03-29T03:22:09;18.90;69.00
61323;DHT22;47203;48.428;11.974;2024-03-29T03:24:10;18.90;68.60
61323;DHT22;47203;48.428;11.974;2024-03-29T03:26:12;18.90;69.20
61323;DHT22;47203;48.428;11.974;2024-03-29T03:28:13;19.00;69.30
61323;DHT22;47203;48.428;11.974;2024-03-29T03:30:16;18.90;69.30
61323;DHT22;47203;48.428;11.974;2024-03-29T03:32:17;18.90;68.90
61323;DHT22;47203;48.428;11.974;2024-03-29T03:34:19;19.00;69.70
61323;DHT22;47203;48.428;11.974;2024-03-29T03:38:22;18.90;69.50
61323;DHT22;47203;48.428;11.974;2024-03-29T03:40:22;18.90;69.10
61323;DHT22;47203;48.428;11.974;2024-03-29T03:42:24;18.90;69.60
61323;DHT22;47203;48.428;11.974;2024-03-29T03:44:25;18.90;69.70
61323;DHT22;47203;48.428;11.974;2024-03-29T03:46:30;18.90;70.00
61323;DHT22;47203;48.428;11.974;2024-03-29T03:50:33;18.90;69.10
61323;DHT22;47203;48.428;11.974;2024-03-29T03:52:34;18.90;69.70
61323;DHT22;47203;48.428;11.974;2024-03-29T03:54:35;19.00;70.00
61323;DHT22;47203;48.428;11.974;2024-03-29T03:56:36;19.00;69.70
61323;DHT22;47203;48.428;11.974;2024-03-29T03:58:38;19.00;69.60
61323;DHT22;47203;48.428;11.974;2024-03-29T04:00:40;19.00;69.60
61323;DHT22;47203;48.428;11.974;2024-03-29T04:02:43;19.00;69.20
61323;DHT22;47203;48.428;11.974;2024-03-29T04:04:47;18.90;70.00
61323;DHT22;47203;48.428;11.974;2024-03-29T04:06:49;19.00;69.80
61323;DHT22;47203;48.428;11.974;2024-03-29T04:08:50;19.00;69.80
61323;DHT22;47203;48.428;11.974;2024-03-29T04:10:52;19.00;70.00
61323;DHT22;47203;48.428;11.974;2024-03-29T04:12:55;19.00;69.90
61323;DHT22;47203;48.428;11.974;2024-03-29T04:16:58;19.00;70.00
61323;DHT22;47203;48.428;11.974;2024-03-29T04:19:01;19.00;69.60
61323;DHT22;47203;48.428;11.974;2024-03-29T04:21:03;19.00;69.80
61323;DHT22;47203;48.428;11.974;2024-03-29T04:23:05;19.00;69.80
61323;DHT22;47203;48.428;11.974;2024-03-29T04:25:07;19.00;69.70
61323;DHT22;47203;48.428;11.974;2024-03-29T04:27:09;19.00;70.00
61323;DHT22;47203;48.428;11.974;2024-03-29T04:29:10;19.00;69.80
61323;DHT22;47203;48.428;11.974;2024-03-29T04:31:12;19.00;69.90
61323;DHT22;47203;48.428;11.974;2024-03-29T04:33:12;19.00;69.40
61323;DHT22;47203;48.428;11.974;2024-03-29T04:35:16;19.00;69.70
61323;DHT22;47203;48.428;11.974;2024-03-29T04:37:17;19.00;70.00
61323;DHT22;47203;48.428;11.974;2024-03-29T04:39:19;19.00;69.70
61323;DHT22;47203;48.428;11.974;2024-03-29T04:41:19;19.00;69.80
61323;DHT22;47203;48.428;11.974;2024-03-29T04:43:22;19.00;69.90
61323;DHT22;47203;48.428;11.974;2024-03-29T04:47:27;19.00;69.80
61323;DHT22;47203;48.428;11.974;2024-03-29T04:49:28;18.90;69.70
61323;DHT22;47203;48.428;11.974;2024-03-29T04:51:35;19.00;70.20
61323;DHT22;47203;48.428;11.974;2024-03-29T04:53:36;19.00;70.10
61323;DHT22;47203;48.428;11.974;2024-03-29T04:55:39;19.00;70.10
61323;DHT22;47203;48.428;11.974;2024-03-29T04:57:42;19.00;69.80
61323;DHT22;47203;48.428;11.974;2024-03-29T04:59:44;19.00;69.60
61323;DHT22;47203;48.428;11.974;2024-03-29T05:01:46;19.00;70.20
61323;DHT22;47203;48.428;11.974;2024-03-29T05:03:50;19.00;69.90
61323;DHT22;47203;48.428;11.974;2024-03-29T05:05:53;19.00;70.10
61323;DHT22;47203;48.428;11.974;2024-03-29T05:09:57;19.00;70.20
61323;DHT22;47203;48.428;11.974;2024-03-29T05:11:59;19.00;70.10
61323;DHT22;47203;48.428;11.974;2024-03-29T05:14:01;19.00;70.10
61323;DHT22;47203;48.428;11.974;2024-03-29T05:16:04;19.00;70.20
61323;DHT22;47203;48.428;11.974;2024-03-29T05:18:06;19.00;69.80
61323;DHT22;47203;48.428;11.974;2024-03-29T05:20:08;19.00;70.10
61323;DHT22;47203;48.428;11.974;2024-03-29T05:22:11;19.00;70.00
61323;DHT22;47203;48.428;11.974;2024-03-29T05:24:14;19.00;69.80
61323;DHT22;47203;48.428;11.974;2024-03-29T05:28:19;19.00;69.70
61323;DHT22;47203;48.428;11.974;2024-03-29T05:32:24;19.00;70.20
61323;DHT22;47203;48.428;11.974;2024-03-29T05:34:26;19.00;69.90
61323;DHT22;47203;48.428;11.974;2024-03-29T05:36:27;19.00;70.20
61323;DHT22;47203;48.428;11.974;2024-03-29T05:38:29;19.00;69.60
61323;DHT22;47203;48.428;11.974;2024-03-29T05:40:32;19.00;70.00
61323;DHT22;47203;48.428;11.974;2024-03-29T05:42:33;19.00;70.00
61323;DHT22;47203;48.428;11.974;2024-03-29T05:44:37;19.00;70.10
61323;DHT22;47203;48.428;11.974;2024-03-29T05:46:38;19.00;69.80
61323;DHT22;47203;48.428;11.974;2024-03-29T05:48:40;19.00;69.70
61323;DHT22;47203;48.428;11.974;2024-03-29T05:50:41;19.00;69.80
61323;DHT22;47203;48.428;11.974;2024-03-29T05:52:43;19.00;69.60
61323;DHT22;47203;48.428;11.974;2024-03-29T05:54:44;19.00;69.70
61323;DHT22;47203;48.428;11.974;2024-03-29T05:56:48;19.00;69.90
61323;DHT22;47203;48.428;11.974;2024-03-29T05:58:50;19.00;69.90
61323;DHT22;47203;48.428;11.974;2024-03-29T06:00:52;19.00;70.20
61323;DHT22;47203;48.428;11.974;2024-03-29T06:02:54;19.00;70.10
61323;DHT22;47203;48.428;11.974;2024-03-29T06:04:57;19.00;70.20
61323;DHT22;47203;48.428;11.974;2024-03-29T06:06:58;19.00;70.10
61323;DHT22;47203;48.428;11.974;2024-03-29T06:11:02;19.00;69.60
61323;DHT22;47203;48.428;11.974;2024-03-29T06:13:05;19.00;69.50
61323;DHT22;47203;48.428;11.974;2024-03-29T06:19:39;19.00;70.00
61323;DHT22;47203;48.428;11.974;2024-03-29T06:21:42;19.00;69.70
61323;DHT22;47203;48.428;11.974;2024-03-29T06:23:44;19.00;70.40
61323;DHT22;47203;48.428;11.974;2024-03-29T06:25:45;19.00;70.10
61323;DHT22;47203;48.428;11.974;2024-03-29T06:27:48;19.00;70.50
61323;DHT22;47203;48.428;11.974;2024-03-29T06:29:51;19.00;70.40
61323;DHT22;47203;48.428;11.974;2024-03-29T06:31:53;19.00;70.10
61323;DHT22;47203;48.428;11.974;2024-03-29T06:35:58;19.00;70.10
61323;DHT22;47203;48.428;11.974;2024-03-29T06:38:00;19.00;70.20
61323;DHT22;47203;48.428;11.974;2024-03-29T06:42:04;19.10;69.90
61323;DHT22;47203;48.428;11.974;2024-03-29T06:44:07;19.00;69.90
61323;DHT22;47203;48.428;11.974;2024-03-29T06:46:10;19.00;69.70
61323;DHT22;47203;48.428;11.974;2024-03-29T06:48:12;19.00;69.50
61323;DHT22;47203;48.428;11.974;2024-03-29T06:50:14;19.00;69.70
61323;DHT22;47203;48.428;11.974;2024-03-29T06:52:16;19.00;70.00
61323;DHT22;47203;48.428;11.974;2024-03-29T06:54:18;19.00;70.10
61323;DHT22;47203;48.428;11.974;2024-03-29T06:56:22;19.00;69.40
61323;DHT22;47203;48.428;11.974;2024-03-29T06:58:24;19.00;69.50
61323;DHT22;47203;48.428;11.974;2024-03-29T07:00:26;19.00;69.70
61323;DHT22;47203;48.428;11.974;2024-03-29T07:02:29;19.10;69.60
61323;DHT22;47203;48.428;11.974;2024-03-29T07:04:39;19.10;69.90
61323;DHT22;47203;48.428;11.974;2024-03-29T07:06:41;19.00;69.70
61323;DHT22;47203;48.428;11.974;2024-03-29T07:08:47;19.00;69.50
61323;DHT22;47203;48.428;11.974;2024-03-29T07:10:56;19.00;69.90
61323;DHT22;47203;48.428;11.974;2024-03-29T07:12:59;19.00;69.90
61323;DHT22;47203;48.428;11.974;2024-03-29T07:15:00;19.00;69.50
61323;DHT22;47203;48.428;11.974;2024-03-29T07:17:03;19.10;69.70
61323;DHT22;47203;48.428;11.974;2024-03-29T07:19:07;19.00;70.00
61323;DHT22;47203;48.428;11.974;2024-03-29T07:21:08;19.00;69.80
61323;DHT22;47203;48.428;11.974;2024-03-29T07:23:10;19.00;70.10
61323;DHT22;47203;48.428;11.974;2024-03-29T07:27:22;19.10;69.90
61323;DHT22;47203;48.428;11.974;2024-03-29T07:29:24;19.00;70.00
61323;DHT22;47203;48.428;11.974;2024-03-29T07:31:26;19.00;70.00
61323;DHT22;47203;48.428;11.974;2024-03-29T07:33:27;19.00;69.80
61323;DHT22;47203;48.428;11.974;2024-03-29T07:35:30;19.10;70.00
61323;DHT22;47203;48.428;11.974;2024-03-29T07:37:32;19.00;69.90
61323;DHT22;47203;48.428;11.974;2024-03-29T07:39:33;19.00;69.70
61323;DHT22;47203;48.428;11.974;2024-03-29T07:41:35;19.10;70.10
61323;DHT22;47203;48.428;11.974;2024-03-29T07:43:38;19.00;69.80
61323;DHT22;47203;48.428;11.974;2024-03-29T07:45:40;19.10;69.70
61323;DHT22;47203;48.428;11.974;2024-03-29T07:47:42;19.00;70.00
61323;DHT22;47203;48.428;11.974;2024-03-29T07:49:44;19.00;70.20
61323;DHT22;47203;48.428;11.974;2024-03-29T07:51:47;19.00;70.20
61323;DHT22;47203;48.428;11.974;2024-03-29T07:53:49;19.00;70.30
61323;DHT22;47203;48.428;11.974;2024-03-29T07:56:00;19.00;70.20
61323;DHT22;47203;48.428;11.974;2024-03-29T07:58:07;19.10;70.40
61323;DHT22;47203;48.428;11.974;2024-03-29T08:00:10;19.00;70.40
61323;DHT22;47203;48.428;11.974;2024-03-29T08:02:35;19.00;70.40
61323;DHT22;47203;48.428;11.974;2024-03-29T08:04:37;19.10;70.40
61323;DHT22;47203;48.428;11.974;2024-03-29T08:06:43;19.00;70.50
61323;DHT22;47203;48.428;11.974;2024-03-29T08:08:46;19.00;70.20
61323;DHT22;47203;48.428;11.974;2024-03-29T08:10:47;19.10;70.20
61323;DHT22;47203;48.428;11.974;2024-03-29T08:12:54;19.00;70.10
61323;DHT22;47203;48.428;11.974;2024-03-29T08:14:56;19.10;70.40
61323;DHT22;47203;48.428;11.974;2024-03-29T08:17:21;19.00;70.40
61323;DHT22;47203;48.428;11.974;2024-03-29T08:19:23;19.00;70.20
61323;DHT22;47203;48.428;11.974;2024-03-29T08:21:31;19.00;70.40
61323;DHT22;47203;48.428;11.974;2024-03-29T08:23:33;19.10;70.60
61323;DHT22;47203;48.428;11.974;2024-03-29T08:25:36;19.00;70.40
61323;DHT22;47203;48.428;11.974;2024-03-29T08:27:38;19.00;70.50
61323;DHT22;47203;48.428;11.974;2024-03-29T08:29:47;19.10;70.50
61323;DHT22;47203;48.428;11.974;2024-03-29T08:31:49;19.10;70.40
61323;DHT22;47203;48.428;11.974;2024-03-29T08:34:19;19.10;70.60
61323;DHT22;47203;48.428;11.974;2024-03-29T08:36:21;19.00;70.60
61323;DHT22;47203;48.428;11.974;2024-03-29T08:38:23;19.00;70.50
61323;DHT22;47203;48.428;11.974;2024-03-29T08:40:24;19.10;70.50
61323;DHT22;47203;48.428;11.974;2024-03-29T08:42:39;19.00;70.60
61323;DHT22;47203;48.428;11.974;2024-03-29T08:44:41;19.00;70.70
61323;DHT22;47203;48.428;11.974;2024-03-29T08:46:43;19.00;70.50
61323;DHT22;47203;48.428;11.974;2024-03-29T08:48:45;19.00;70.70
61323;DHT22;47203;48.428;11.974;2024-03-29T08:50:46;19.00;70.70
61323;DHT22;47203;48.428;11.974;2024-03-29T08:52:48;19.00;70.80
61323;DHT22;47203;48.428;11.974;2024-03-29T08:54:50;19.00;70.80
61323;DHT22;47203;48.428;11.974;2024-03-29T08:56:55;19.00;70.40
61323;DHT22;47203;48.428;11.974;2024-03-29T08:58:59;19.00;70.80
61323;DHT22;47203;48.428;11.974;2024-03-29T09:01:03;19.00;70.80
61323;DHT22;47203;48.428;11.974;2024-03-29T09:03:05;19.10;70.90
61323;DHT22;47203;48.428;11.974;2024-03-29T09:05:07;19.00;70.80
61323;DHT22;47203;48.428;11.974;2024-03-29T09:07:09;19.00;70.70
61323;DHT22;47203;48.428;11.974;2024-03-29T09:09:11;19.00;70.30
61323;DHT22;47203;48.428;11.974;2024-03-29T09:11:14;19.00;70.70
61323;DHT22;47203;48.428;11.974;2024-03-29T09:13:16;19.00;70.70
61323;DHT22;47203;48.428;11.974;2024-03-29T09:15:18;19.00;70.50
61323;DHT22;47203;48.428;11.974;2024-03-29T09:17:20;19.10;70.70
61323;DHT22;47203;48.428;11.974;2024-03-29T09:19:22;19.10;70.70
61323;DHT22;47203;48.428;11.974;2024-03-29T09:21:24;19.00;70.80
61323;DHT22;47203;48.428;11.974;2024-03-29T09:23:26;19.00;70.80
61323;DHT22;47203;48.428;11.974;2024-03-29T09:25:29;19.00;70.80
61323;DHT22;47203;48.428;11.974;2024-03-29T09:29:36;19.00;70.90
61323;DHT22;47203;48.428;11.974;2024-03-29T09:31:39;19.00;70.90
61323;DHT22;47203;48.428;11.974;2024-03-29T09:33:41;19.00;70.80
61323;DHT22;47203;48.428;11.974;2024-03-29T09:35:42;19.10;70.80
61323;DHT22;47203;48.428;11.974;2024-03-29T09:37:44;19.10;70.90
61323;DHT22;47203;48.428;11.974;2024-03-29T09:39:46;19.00;71.00
61323;DHT22;47203;48.428;11.974;2024-03-29T09:41:48;19.10;71.00
61323;DHT22;47203;48.428;11.974;2024-03-29T09:43:51;19.10;71.10
61323;DHT22;47203;48.428;11.974;2024-03-29T09:45:55;19.00;70.70
61323;DHT22;47203;48.428;11.974;2024-03-29T09:47:58;19.00;70.90
61323;DHT22;47203;48.428;11.974;2024-03-29T09:50:03;19.10;71.00
61323;DHT22;47203;48.428;11.974;2024-03-29T09:52:06;19.00;71.00
61323;DHT22;47203;48.428;11.974;2024-03-29T09:54:09;19.10;71.20
61323;DHT22;47203;48.428;11.974;2024-03-29T09:56:13;19.10;71.20
61323;DHT22;47203;48.428;11.974;2024-03-29T09:58:15;19.00;71.10
61323;DHT22;47203;48.428;11.974;2024-03-29T10:00:17;19.10;71.10
61323;DHT22;47203;48.428;11.974;2024-03-29T10:02:19;19.10;71.00
61323;DHT22;47203;48.428;11.974;2024-03-29T10:04:25;19.00;71.00
61323;DHT22;47203;48.428;11.974;2024-03-29T10:06:29;19.00;71.00
61323;DHT22;47203;48.428;11.974;2024-03-29T10:08:31;19.10;71.10
61323;DHT22;47203;48.428;11.974;2024-03-29T10:10:33;19.00;71.10
61323;DHT22;47203;48.428;11.974;2024-03-29T10:14:43;19.10;71.30
61323;DHT22;47203;48.428;11.974;2024-03-29T10:16:50;19.10;71.40
61323;DHT22;47203;48.428;11.974;2024-03-29T10:18:52;19.10;71.40
61323;DHT22;47203;48.428;11.974;2024-03-29T10:21:02;19.10;71.40
61323;DHT22;47203;48.428;11.974;2024-03-29T10:23:04;19.10;71.50
61323;DHT22;47203;48.428;11.974;2024-03-29T10:25:07;19.10;71.50
61323;DHT22;47203;48.428;11.974;2024-03-29T10:27:09;19.10;71.50
61323;DHT22;47203;48.428;11.974;2024-03-29T10:29:11;19.10;71.50
61323;DHT22;47203;48.428;11.974;2024-03-29T10:31:13;19.10;71.50
61323;DHT22;47203;48.428;11.974;2024-03-29T10:33:15;19.10;71.40
61323;DHT22;47203;48.428;11.974;2024-03-29T10:35:16;19.10;71.50
61323;DHT22;47203;48.428;11.974;2024-03-29T10:37:28;19.10;71.50
61323;DHT22;47203;48.428;11.974;2024-03-29T10:39:33;19.10;71.30
61323;DHT22;47203;48.428;11.974;2024-03-29T10:41:35;19.10;71.40
61323;DHT22;47203;48.428;11.974;2024-03-29T10:43:38;19.10;71.40
61323;DHT22;47203;48.428;11.974;2024-03-29T10:45:41;19.10;71.60
61323;DHT22;47203;48.428;11.974;2024-03-29T10:47:43;19.10;71.50
61323;DHT22;47203;48.428;11.974;2024-03-29T10:49:47;19.10;71.50
61323;DHT22;47203;48.428;11.974;2024-03-29T10:51:51;19.10;71.40
61323;DHT22;47203;48.428;11.974;2024-03-29T10:53:58;19.10;71.40
61323;DHT22;47203;48.428;11.974;2024-03-29T10:56:01;19.10;71.50
61323;DHT22;47203;48.428;11.974;2024-03-29T10:58:09;19.10;71.50
61323;DHT22;47203;48.428;11.974;2024-03-29T11:00:13;19.10;71.40
61323;DHT22;47203;48.428;11.974;2024-03-29T11:02:22;19.10;71.50
61323;DHT22;47203;48.428;11.974;2024-03-29T11:04:35;19.10;71.50
61323;DHT22;47203;48.428;11.974;2024-03-29T11:06:40;19.10;71.60
61323;DHT22;47203;48.428;11.974;2024-03-29T11:08:43;19.10;71.50
61323;DHT22;47203;48.428;11.974;2024-03-29T11:10:49;19.10;71.50
61323;DHT22;47203;48.428;11.974;2024-03-29T11:15:13;19.10;71.50
61323;DHT22;47203;48.428;11.974;2024-03-29T11:17:22;19.20;71.50
61323;DHT22;47203;48.428;11.974;2024-03-29T11:19:24;19.20;71.60
61323;DHT22;47203;48.428;11.974;2024-03-29T11:21:27;19.20;71.60
61323;DHT22;47203;48.428;11.974;2024-03-29T11:23:28;19.20;71.60
61323;DHT22;47203;48.428;11.974;2024-03-29T11:25:40;19.20;71.60
61323;DHT22;47203;48.428;11.974;2024-03-29T11:29:49;19.20;71.50
61323;DHT22;47203;48.428;11.974;2024-03-29T11:31:56;19.20;71.50
61323;DHT22;47203;48.428;11.974;2024-03-29T11:36:07;19.20;71.40
61323;DHT22;47203;48.428;11.974;2024-03-29T11:38:16;19.20;71.40
61323;DHT22;47203;48.428;11.974;2024-03-29T11:42:34;19.20;71.40
61323;DHT22;47203;48.428;11.974;2024-03-29T11:44:38;19.20;71.40
61323;DHT22;47203;48.428;11.974;2024-03-29T11:48:44;19.20;71.30
61323;DHT22;47203;48.428;11.974;2024-03-29T11:50:49;19.20;71.40
61323;DHT22;47203;48.428;11.974;2024-03-29T11:52:50;19.20;71.40
61323;DHT22;47203;48.428;11.974;2024-03-29T11:54:53;19.20;71.50
61323;DHT22;47203;48.428;11.974;2024-03-29T11:56:55;19.20;71.40
61323;DHT22;47203;48.428;11.974;2024-03-29T11:58:58;19.20;71.30
61323;DHT22;47203;48.428;11.974;2024-03-29T12:01:02;19.10;71.40
61323;DHT22;47203;48.428;11.974;2024-03-29T12:03:03;19.20;71.30
61323;DHT22;47203;48.428;11.974;2024-03-29T12:05:06;19.10;71.30
61323;DHT22;47203;48.428;11.974;2024-03-29T12:07:10;19.20;71.30
61323;DHT22;47203;48.428;11.974;2024-03-29T12:09:13;19.20;71.40
61323;DHT22;47203;48.428;11.974;2024-03-29T12:11:15;19.10;71.30
61323;DHT22;47203;48.428;11.974;2024-03-29T12:13:17;19.20;71.30
61323;DHT22;47203;48.428;11.974;2024-03-29T12:15:18;19.20;71.40
61323;DHT22;47203;48.428;11.974;2024-03-29T12:17:21;19.20;71.30
61323;DHT22;47203;48.428;11.974;2024-03-29T12:19:24;19.20;71.30
61323;DHT22;47203;48.428;11.974;2024-03-29T12:23:27;19.10;71.30
61323;DHT22;47203;48.428;11.974;2024-03-29T12:25:29;19.20;71.40
61323;DHT22;47203;48.428;11.974;2024-03-29T12:27:32;19.10;71.40
61323;DHT22;47203;48.428;11.974;2024-03-29T12:29:34;19.20;71.50
61323;DHT22;47203;48.428;11.974;2024-03-29T12:33:40;19.20;71.40
61323;DHT22;47203;48.428;11.974;2024-03-29T12:36:08;19.20;71.40
61323;DHT22;47203;48.428;11.974;2024-03-29T12:38:15;19.10;71.40
61323;DHT22;47203;48.428;11.974;2024-03-29T12:40:18;19.10;71.50
61323;DHT22;47203;48.428;11.974;2024-03-29T12:42:22;19.10;71.60
61323;DHT22;47203;48.428;11.974;2024-03-29T12:44:24;19.10;71.50
61323;DHT22;47203;48.428;11.974;2024-03-29T12:46:26;19.10;71.50
61323;DHT22;47203;48.428;11.974;2024-03-29T12:48:29;19.20;71.40
61323;DHT22;47203;48.428;11.974;2024-03-29T12:50:32;19.10;71.50
61323;DHT22;47203;48.428;11.974;2024-03-29T12:54:41;19.10;71.60
61323;DHT22;47203;48.428;11.974;2024-03-29T12:56:41;19.10;71.50
61323;DHT22;47203;48.428;11.974;2024-03-29T12:58:44;19.10;71.60
61323;DHT22;47203;48.428;11.974;2024-03-29T13:00:46;19.10;71.20
61323;DHT22;47203;48.428;11.974;2024-03-29T13:02:48;19.10;71.60
61323;DHT22;47203;48.428;11.974;2024-03-29T13:05:06;19.10;71.60
61323;DHT22;47203;48.428;11.974;2024-03-29T13:09:17;19.10;71.60
61323;DHT22;47203;48.428;11.974;2024-03-29T13:11:24;19.10;71.60
61323;DHT22;47203;48.428;11.974;2024-03-29T13:13:26;19.10;71.60
61323;DHT22;47203;48.428;11.974;2024-03-29T13:15:27;19.10;71.60
61323;DHT22;47203;48.428;11.974;2024-03-29T13:17:39;19.10;71.70
61323;DHT22;47203;48.428;11.974;2024-03-29T13:19:40;19.10;71.50
61323;DHT22;47203;48.428;11.974;2024-03-29T13:21:45;19.10;71.60
61323;DHT22;47203;48.428;11.974;2024-03-29T13:28:26;19.10;71.60
61323;DHT22;47203;48.428;11.974;2024-03-29T13:30:40;19.10;71.60
61323;DHT22;47203;48.428;11.974;2024-03-29T13:34:52;19.10;71.60
61323;DHT22;47203;48.428;11.974;2024-03-29T13:36:54;19.10;71.70
61323;DHT22;47203;48.428;11.974;2024-03-29T13:38:59;19.10;71.60
61323;DHT22;47203;48.428;11.974;2024-03-29T13:41:10;19.10;71.70
61323;DHT22;47203;48.428;11.974;2024-03-29T13:45:38;19.10;71.70
61323;DHT22;47203;48.428;11.974;2024-03-29T13:47:41;19.10;71.70
61323;DHT22;47203;48.428;11.974;2024-03-29T13:49:46;19.10;71.70